createdAt,value
2023-11-17T00:00:24.634Z,82.07
2023-11-17T00:01:27.996Z,82.11
2023-11-17T00:02:30.206Z,82.07
2023-11-17T00:03:32.195Z,82.04
2023-11-17T00:04:34.848Z,82.10
2023-11-17T00:05:36.982Z,82.10
2023-11-17T00:06:39.152Z,81.99
2023-11-17T00:07:41.461Z,81.88
2023-11-17T00:08:43.654Z,81.88
2023-11-17T00:09:45.902Z,81.83
2023-11-17T00:10:48.206Z,81.94
2023-11-17T00:11:50.484Z,81.80
2023-11-17T00:12:52.639Z,81.77
2023-11-17T00:13:54.804Z,81.88
2023-11-17T00:14:57.207Z,81.96
2023-11-17T00:15:59.486Z,81.81
2023-11-17T00:17:02.896Z,81.71
2023-11-17T00:18:05.341Z,81.75
2023-11-17T00:19:07.525Z,81.69
2023-11-17T00:20:10.934Z,81.88
2023-11-17T00:21:13.142Z,81.89
2023-11-17T00:22:15.394Z,81.87
2023-11-17T00:23:17.450Z,81.77
2023-11-17T00:24:20.288Z,81.84
2023-11-17T00:25:22.584Z,81.90
2023-11-17T00:26:25.099Z,82.17
2023-11-17T00:27:29.145Z,82.17
2023-11-17T00:28:31.622Z,82.06
2023-11-17T00:29:34.093Z,81.95
2023-11-17T00:30:36.537Z,81.91
2023-11-17T00:31:39.049Z,81.96
2023-11-17T00:32:41.495Z,82.10
2023-11-17T00:33:43.742Z,82.12
2023-11-17T00:34:46.371Z,82.08
2023-11-17T00:35:48.539Z,82.02
2023-11-17T00:36:52.035Z,82.14
2023-11-17T00:37:55.268Z,81.98
2023-11-17T00:38:57.822Z,82.05
2023-11-17T00:40:01.927Z,82.20
2023-11-17T00:41:11.499Z,82.08
2023-11-17T00:42:09.487Z,82.06
2023-11-17T00:43:11.925Z,81.98
2023-11-17T00:44:14.221Z,82.02
2023-11-17T00:45:16.235Z,81.97
2023-11-17T00:46:19.236Z,81.95
2023-11-17T00:47:22.034Z,82.03
2023-11-17T00:48:26.185Z,82.01
2023-11-17T00:49:28.886Z,82.01
2023-11-17T00:50:31.111Z,82.17
2023-11-17T00:51:33.328Z,82.33
2023-11-17T00:52:35.417Z,82.41
2023-11-17T00:53:37.466Z,82.43
2023-11-17T00:54:40.124Z,82.55
2023-11-17T00:55:42.272Z,82.62
2023-11-17T00:56:44.283Z,82.70
2023-11-17T00:57:46.806Z,82.78
2023-11-17T00:58:49.149Z,82.87
2023-11-17T00:59:51.667Z,82.81
2023-11-17T01:00:54.830Z,82.80
2023-11-17T01:01:57.365Z,82.71
2023-11-17T01:03:01.024Z,82.49
2023-11-17T01:04:06.771Z,82.38
2023-11-17T01:05:13.636Z,82.32
2023-11-17T01:06:19.948Z,82.32
2023-11-17T01:07:25.186Z,82.22
2023-11-17T01:08:30.247Z,82.30
2023-11-17T01:09:37.549Z,82.22
2023-11-17T01:10:42.056Z,82.34
2023-11-17T01:11:45.849Z,82.39
2023-11-17T01:12:50.953Z,82.34
2023-11-17T01:13:58.147Z,82.38
2023-11-17T01:15:05.456Z,82.31
2023-11-17T01:16:13.894Z,82.21
2023-11-17T01:17:20.489Z,82.16
2023-11-17T01:18:26.266Z,82.06
2023-11-17T01:19:29.689Z,82.07
2023-11-17T01:20:34.185Z,82.13
2023-11-17T01:21:39.494Z,81.92
2023-11-17T01:22:44.456Z,81.88
2023-11-17T01:23:52.561Z,81.75
2023-11-17T01:24:55.910Z,81.62
2023-11-17T01:26:00.088Z,81.58
2023-11-17T01:27:06.972Z,81.61
2023-11-17T01:28:15.508Z,81.90
2023-11-17T01:29:22.560Z,81.81
2023-11-17T01:30:30.143Z,81.92
2023-11-17T01:31:38.000Z,81.78
2023-11-17T01:32:47.729Z,81.73
2023-11-17T01:33:55.175Z,81.82
2023-11-17T01:35:01.504Z,81.73
2023-11-17T01:36:07.620Z,81.82
2023-11-17T01:37:14.087Z,81.93
2023-11-17T01:38:26.448Z,81.60
2023-11-17T01:39:33.407Z,81.51
2023-11-17T01:40:37.771Z,81.48
2023-11-17T01:41:49.185Z,81.57
2023-11-17T01:42:57.206Z,81.48
2023-11-17T01:44:04.086Z,81.37
2023-11-17T01:45:10.485Z,81.33
2023-11-17T01:46:22.374Z,81.34
2023-11-17T01:47:29.945Z,81.38
2023-11-17T01:48:35.665Z,81.44
2023-11-17T01:49:38.819Z,81.36
2023-11-17T01:50:44.029Z,81.41
2023-11-17T01:51:49.806Z,81.49
2023-11-17T01:52:54.264Z,81.43
2023-11-17T01:54:02.453Z,81.38
2023-11-17T01:55:19.213Z,81.53
2023-11-17T01:56:26.440Z,81.74
2023-11-17T01:59:07.638Z,81.71
2023-11-17T02:00:14.267Z,81.74
2023-11-17T02:01:20.100Z,81.77
2023-11-17T02:02:24.247Z,81.72
2023-11-17T02:03:29.475Z,81.58
2023-11-17T02:04:38.119Z,81.45
2023-11-17T02:05:45.099Z,81.41
2023-11-17T02:07:08.271Z,81.49
2023-11-17T02:09:37.862Z,81.47
2023-11-17T02:11:02.158Z,81.25
2023-11-17T02:12:26.302Z,81.29
2023-11-17T02:13:45.128Z,81.27
2023-11-17T02:14:49.817Z,81.35
2023-11-17T02:17:15.241Z,81.49
2023-11-17T02:18:20.200Z,81.61
2023-11-17T02:19:38.225Z,81.57
2023-11-17T02:20:43.118Z,81.38
2023-11-17T02:21:46.951Z,81.36
2023-11-17T02:22:51.732Z,81.04
2023-11-17T02:23:54.165Z,80.92
2023-11-17T02:25:12.515Z,80.71
2023-11-17T02:26:31.128Z,80.50
2023-11-17T02:27:37.545Z,80.30
2023-11-17T02:28:46.428Z,80.28
2023-11-17T02:29:49.587Z,80.31
2023-11-17T02:30:52.967Z,80.18
2023-11-17T02:31:56.243Z,80.15
2023-11-17T02:32:59.258Z,80.31
2023-11-17T02:35:21.887Z,80.58
2023-11-17T02:36:25.313Z,80.84
2023-11-17T02:37:27.688Z,80.78
2023-11-17T02:38:30.243Z,80.38
2023-11-17T02:39:32.730Z,80.43
2023-11-17T02:40:35.046Z,80.49
2023-11-17T02:41:37.707Z,80.57
2023-11-17T02:42:40.005Z,80.35
2023-11-17T02:43:42.151Z,80.25
2023-11-17T02:44:44.210Z,80.31
2023-11-17T02:45:47.211Z,80.23
2023-11-17T02:46:50.218Z,80.11
2023-11-17T02:47:56.392Z,80.18
2023-11-17T02:48:58.023Z,80.32
2023-11-17T02:50:00.387Z,80.14
2023-11-17T02:51:03.344Z,80.00
2023-11-17T02:52:08.690Z,79.91
2023-11-17T02:53:11.138Z,79.68
2023-11-17T02:54:14.555Z,79.76
2023-11-17T02:55:18.570Z,79.79
2023-11-17T02:56:21.815Z,80.01
2023-11-17T02:57:26.327Z,80.13
2023-11-17T02:58:30.328Z,79.96
2023-11-17T02:59:33.373Z,79.92
2023-11-17T03:00:38.141Z,79.93
2023-11-17T03:01:41.520Z,80.11
2023-11-17T03:02:43.779Z,80.14
2023-11-17T03:03:50.386Z,80.06
2023-11-17T03:04:52.980Z,79.87
2023-11-17T03:05:55.253Z,79.92
2023-11-17T03:06:58.399Z,80.10
2023-11-17T03:08:01.179Z,80.15
2023-11-17T03:09:03.710Z,80.17
2023-11-17T03:10:07.024Z,80.17
2023-11-17T03:11:10.453Z,80.11
2023-11-17T03:12:14.038Z,79.81
2023-11-17T03:13:16.164Z,79.76
2023-11-17T03:14:19.155Z,79.76
2023-11-17T03:15:24.487Z,79.82
2023-11-17T03:16:27.268Z,79.84
2023-11-17T03:17:29.861Z,80.10
2023-11-17T03:18:33.170Z,80.12
2023-11-17T03:19:36.752Z,80.22
2023-11-17T03:20:39.727Z,80.25
2023-11-17T03:21:42.546Z,80.16
2023-11-17T03:22:45.380Z,80.16
2023-11-17T03:23:47.940Z,80.06
2023-11-17T03:24:50.091Z,80.17
2023-11-17T03:25:53.326Z,80.07
2023-11-17T03:26:58.086Z,80.09
2023-11-17T03:28:00.947Z,80.00
2023-11-17T03:29:04.632Z,79.93
2023-11-17T03:30:08.359Z,79.71
2023-11-17T03:31:10.695Z,79.57
2023-11-17T03:32:13.627Z,79.70
2023-11-17T03:33:16.287Z,79.58
2023-11-17T03:34:22.702Z,79.63
2023-11-17T03:35:24.939Z,79.69
2023-11-17T03:36:27.841Z,79.63
2023-11-17T03:37:31.016Z,79.72
2023-11-17T03:38:33.388Z,79.92
2023-11-17T03:39:37.334Z,79.70
2023-11-17T03:40:46.192Z,79.79
2023-11-17T03:41:48.338Z,79.81
2023-11-17T03:42:51.206Z,79.88
2023-11-17T03:43:53.332Z,79.83
2023-11-17T03:44:55.208Z,79.86
2023-11-17T03:45:57.768Z,79.91
2023-11-17T03:47:00.441Z,80.01
2023-11-17T03:48:02.598Z,79.99
2023-11-17T03:49:05.103Z,79.96
2023-11-17T03:50:08.731Z,79.84
2023-11-17T03:51:11.073Z,79.80
2023-11-17T03:52:13.425Z,79.67
2023-11-17T03:53:15.750Z,79.58
2023-11-17T03:54:18.687Z,79.63
2023-11-17T03:55:21.591Z,79.82
2023-11-17T03:56:24.079Z,80.00
2023-11-17T03:57:27.094Z,79.67
2023-11-17T03:58:29.665Z,79.57
2023-11-17T03:59:32.230Z,79.62
2023-11-17T04:00:34.520Z,79.74
2023-11-17T04:01:37.160Z,79.63
2023-11-17T04:02:39.650Z,79.68
2023-11-17T04:03:42.007Z,79.73
2023-11-17T04:04:53.737Z,80.05
2023-11-17T04:06:03.309Z,79.98
2023-11-17T04:07:10.156Z,79.78
2023-11-17T04:08:17.692Z,79.65
2023-11-17T04:09:22.368Z,79.85
2023-11-17T04:10:30.961Z,79.99
2023-11-17T04:11:39.068Z,79.97
2023-11-17T04:14:03.878Z,80.18
2023-11-17T04:15:09.272Z,80.40
2023-11-17T04:16:12.497Z,80.21
2023-11-17T04:17:15.536Z,80.09
2023-11-17T04:18:17.575Z,80.07
2023-11-17T04:19:20.053Z,80.13
2023-11-17T04:20:22.196Z,80.27
2023-11-17T04:21:24.655Z,80.18
2023-11-17T04:22:26.965Z,80.25
2023-11-17T04:23:28.925Z,80.21
2023-11-17T04:24:30.952Z,80.18
2023-11-17T04:25:33.109Z,80.08
2023-11-17T04:26:35.220Z,80.01
2023-11-17T04:27:37.613Z,80.00
2023-11-17T04:28:40.317Z,80.13
2023-11-17T04:29:42.896Z,80.35
2023-11-17T04:30:45.268Z,80.46
2023-11-17T04:31:48.367Z,80.50
2023-11-17T04:32:51.454Z,80.32
2023-11-17T04:33:53.832Z,80.15
2023-11-17T04:34:56.074Z,80.06
2023-11-17T04:35:58.722Z,80.13
2023-11-17T04:37:00.984Z,80.11
2023-11-17T04:38:03.305Z,80.06
2023-11-17T04:39:06.168Z,80.14
2023-11-17T04:40:09.653Z,80.34
2023-11-17T04:41:13.069Z,80.37
2023-11-17T04:42:15.713Z,80.33
2023-11-17T04:43:18.082Z,80.46
2023-11-17T04:44:20.264Z,80.46
2023-11-17T04:45:22.877Z,80.29
2023-11-17T04:46:25.296Z,80.31
2023-11-17T04:47:27.525Z,80.36
2023-11-17T04:48:30.100Z,80.31
2023-11-17T04:49:32.258Z,80.34
2023-11-17T04:50:35.086Z,80.14
2023-11-17T04:51:37.535Z,80.27
2023-11-17T04:52:39.762Z,80.42
2023-11-17T04:53:41.830Z,80.31
2023-11-17T04:54:46.678Z,80.33
2023-11-17T04:55:48.984Z,80.16
2023-11-17T04:56:51.578Z,80.13
2023-11-17T04:57:53.810Z,80.29
2023-11-17T04:58:55.871Z,80.18
2023-11-17T04:59:58.487Z,79.99
2023-11-17T05:01:01.411Z,79.91
2023-11-17T05:02:03.779Z,79.94
2023-11-17T05:03:06.622Z,79.75
2023-11-17T05:04:08.868Z,79.62
2023-11-17T05:05:11.453Z,79.74
2023-11-17T05:06:19.504Z,79.89
2023-11-17T05:07:21.914Z,79.82
2023-11-17T05:08:24.054Z,79.70
2023-11-17T05:09:26.183Z,79.91
2023-11-17T05:10:29.078Z,80.04
2023-11-17T05:11:32.185Z,80.16
2023-11-17T05:12:35.022Z,80.20
2023-11-17T05:13:37.240Z,80.18
2023-11-17T05:14:39.987Z,79.87
2023-11-17T05:16:52.781Z,79.49
2023-11-17T05:17:55.031Z,79.65
2023-11-17T05:18:57.693Z,79.64
2023-11-17T05:20:00.283Z,79.79
2023-11-17T05:21:02.634Z,79.96
2023-11-17T05:22:04.704Z,79.94
2023-11-17T05:23:06.973Z,80.07
2023-11-17T05:24:09.922Z,80.00
2023-11-17T05:25:14.459Z,79.92
2023-11-17T05:26:17.266Z,79.82
2023-11-17T05:27:19.394Z,79.63
2023-11-17T05:28:21.675Z,79.78
2023-11-17T05:29:24.494Z,79.92
2023-11-17T05:30:27.595Z,79.95
2023-11-17T05:31:30.164Z,79.84
2023-11-17T05:32:34.333Z,79.91
2023-11-17T05:33:36.905Z,79.98
2023-11-17T05:34:39.874Z,79.97
2023-11-17T05:36:52.232Z,79.94
2023-11-17T05:37:54.475Z,80.00
2023-11-17T05:38:56.753Z,80.12
2023-11-17T05:39:59.055Z,79.98
2023-11-17T05:41:01.333Z,79.87
2023-11-17T05:42:03.632Z,79.81
2023-11-17T05:43:05.705Z,79.83
2023-11-17T05:44:08.504Z,79.79
2023-11-17T05:45:10.785Z,79.81
2023-11-17T05:46:14.392Z,79.87
2023-11-17T05:47:16.791Z,79.95
2023-11-17T05:48:19.428Z,79.96
2023-11-17T05:49:22.152Z,80.06
2023-11-17T05:50:24.701Z,79.94
2023-11-17T05:51:27.122Z,80.07
2023-11-17T05:52:29.458Z,80.16
2023-11-17T05:53:31.767Z,80.05
2023-11-17T05:54:35.227Z,80.13
2023-11-17T05:55:37.665Z,80.07
2023-11-17T05:56:40.132Z,80.02
2023-11-17T05:57:42.694Z,80.00
2023-11-17T05:58:45.189Z,80.09
2023-11-17T05:59:48.293Z,80.17
2023-11-17T06:00:51.603Z,80.10
2023-11-17T06:01:54.469Z,79.76
2023-11-17T06:02:56.789Z,79.79
2023-11-17T06:03:58.981Z,79.74
2023-11-17T06:05:01.900Z,79.65
2023-11-17T06:06:04.548Z,79.71
2023-11-17T06:07:06.803Z,79.47
2023-11-17T06:08:09.480Z,79.55
2023-11-17T06:09:11.601Z,79.39
2023-11-17T06:10:15.120Z,79.49
2023-11-17T06:11:25.167Z,79.44
2023-11-17T06:12:27.847Z,79.18
2023-11-17T06:13:29.981Z,79.18
2023-11-17T06:14:32.255Z,79.13
2023-11-17T06:15:35.116Z,79.22
2023-11-17T06:16:37.436Z,79.16
2023-11-17T06:17:39.748Z,79.12
2023-11-17T06:18:42.421Z,79.25
2023-11-17T06:19:44.596Z,79.37
2023-11-17T06:20:47.109Z,79.39
2023-11-17T06:21:49.362Z,79.31
2023-11-17T06:22:51.498Z,79.20
2023-11-17T06:23:54.685Z,79.13
2023-11-17T06:24:56.964Z,79.18
2023-11-17T06:25:59.802Z,79.16
2023-11-17T06:27:02.144Z,79.15
2023-11-17T06:28:04.575Z,79.06
2023-11-17T06:29:07.267Z,79.11
2023-11-17T06:30:11.020Z,79.16
2023-11-17T06:31:13.492Z,79.05
2023-11-17T06:32:16.236Z,79.08
2023-11-17T06:33:18.564Z,78.96
2023-11-17T06:34:21.402Z,78.91
2023-11-17T06:35:23.593Z,78.93
2023-11-17T06:36:26.428Z,79.00
2023-11-17T06:37:28.662Z,78.98
2023-11-17T06:38:31.057Z,79.08
2023-11-17T06:39:33.836Z,79.07
2023-11-17T06:40:36.017Z,79.25
2023-11-17T06:41:38.915Z,79.29
2023-11-17T06:42:41.230Z,79.33
2023-11-17T06:43:43.349Z,79.13
2023-11-17T06:44:46.112Z,79.03
2023-11-17T06:45:50.321Z,78.98
2023-11-17T06:46:53.313Z,78.80
2023-11-17T06:47:55.850Z,78.79
2023-11-17T06:48:58.048Z,78.72
2023-11-17T06:50:00.715Z,78.77
2023-11-17T06:51:03.188Z,78.82
2023-11-17T06:52:06.596Z,78.83
2023-11-17T06:53:08.651Z,78.56
2023-11-17T06:54:11.647Z,78.81
2023-11-17T06:55:13.805Z,78.87
2023-11-17T06:56:16.645Z,78.87
2023-11-17T06:57:19.180Z,79.00
2023-11-17T06:58:21.713Z,79.06
2023-11-17T06:59:23.680Z,79.09
2023-11-17T07:00:27.050Z,79.13
2023-11-17T07:01:29.367Z,79.13
2023-11-17T07:02:31.831Z,79.07
2023-11-17T07:03:36.421Z,79.10
2023-11-17T07:04:39.100Z,79.17
2023-11-17T07:05:43.165Z,79.03
2023-11-17T07:06:48.415Z,78.78
2023-11-17T07:07:55.455Z,78.73
2023-11-17T07:09:00.621Z,79.04
2023-11-17T07:10:06.960Z,79.10
2023-11-17T07:11:12.698Z,79.24
2023-11-17T07:12:19.469Z,79.31
2023-11-17T07:13:27.171Z,79.01
2023-11-17T07:15:26.641Z,79.16
2023-11-17T07:16:40.983Z,79.06
2023-11-17T07:17:34.765Z,79.06
2023-11-17T07:18:37.519Z,79.40
2023-11-17T07:19:40.761Z,79.47
2023-11-17T07:20:43.005Z,79.26
2023-11-17T07:22:57.117Z,79.50
2023-11-17T07:23:59.054Z,79.67
2023-11-17T07:25:01.184Z,79.71
2023-11-17T07:26:03.517Z,79.68
2023-11-17T07:27:05.731Z,79.60
2023-11-17T07:28:07.797Z,79.65
2023-11-17T07:29:09.910Z,79.68
2023-11-17T07:30:13.168Z,79.49
2023-11-17T07:31:15.279Z,79.42
2023-11-17T07:32:17.557Z,79.30
2023-11-17T07:33:20.126Z,79.33
2023-11-17T07:34:23.412Z,79.32
2023-11-17T07:35:26.308Z,79.39
2023-11-17T07:36:29.911Z,79.34
2023-11-17T07:37:32.591Z,79.23
2023-11-17T07:38:36.789Z,79.23
2023-11-17T07:39:39.357Z,78.97
2023-11-17T07:40:42.079Z,79.07
2023-11-17T07:41:44.455Z,79.03
2023-11-17T07:42:49.642Z,79.17
2023-11-17T07:43:52.185Z,79.21
2023-11-17T07:44:54.191Z,79.19
2023-11-17T07:45:56.346Z,79.01
2023-11-17T07:46:59.006Z,78.96
2023-11-17T07:48:01.229Z,78.78
2023-11-17T07:49:04.036Z,78.73
2023-11-17T07:50:06.743Z,78.57
2023-11-17T07:51:09.116Z,78.63
2023-11-17T07:52:11.464Z,78.65
2023-11-17T07:53:14.187Z,78.72
2023-11-17T07:54:16.636Z,78.75
2023-11-17T07:55:19.033Z,78.79
2023-11-17T07:56:22.077Z,78.75
2023-11-17T07:57:24.481Z,78.43
2023-11-17T07:58:27.428Z,78.15
2023-11-17T07:59:29.537Z,78.04
2023-11-17T08:00:32.919Z,78.00
2023-11-17T08:01:35.238Z,78.11
2023-11-17T08:02:37.815Z,78.45
2023-11-17T08:03:40.003Z,78.37
2023-11-17T08:04:42.204Z,78.29
2023-11-17T08:05:44.725Z,78.36
2023-11-17T08:06:47.844Z,78.15
2023-11-17T08:07:50.985Z,78.22
2023-11-17T08:08:53.559Z,78.41
2023-11-17T08:09:56.508Z,78.51
2023-11-17T08:11:00.628Z,78.56
2023-11-17T08:12:03.499Z,78.49
2023-11-17T08:13:06.079Z,78.65
2023-11-17T08:14:08.402Z,78.70
2023-11-17T08:15:11.823Z,78.49
2023-11-17T08:16:15.419Z,78.47
2023-11-17T08:17:18.122Z,78.54
2023-11-17T08:18:20.594Z,78.48
2023-11-17T08:19:25.628Z,78.54
2023-11-17T08:20:27.875Z,78.49
2023-11-17T08:21:30.238Z,78.44
2023-11-17T08:22:32.357Z,78.36
2023-11-17T08:23:34.564Z,78.25
2023-11-17T08:24:37.223Z,78.00
2023-11-17T08:25:39.626Z,78.04
2023-11-17T08:26:42.252Z,78.11
2023-11-17T08:27:44.311Z,78.13
2023-11-17T08:28:46.723Z,78.10
2023-11-17T08:29:49.495Z,78.46
2023-11-17T08:30:53.387Z,78.24
2023-11-17T08:31:56.322Z,78.24
2023-11-17T08:32:58.667Z,78.40
2023-11-17T08:34:01.436Z,78.45
2023-11-17T08:35:05.283Z,78.52
2023-11-17T08:36:09.243Z,78.56
2023-11-17T08:37:12.130Z,78.47
2023-11-17T08:38:15.604Z,78.33
2023-11-17T08:39:17.935Z,78.11
2023-11-17T08:40:20.893Z,77.98
2023-11-17T08:41:23.440Z,77.70
2023-11-17T08:42:26.292Z,77.54
2023-11-17T08:43:28.286Z,77.51
2023-11-17T08:44:30.962Z,77.48
2023-11-17T08:45:33.783Z,77.50
2023-11-17T08:46:36.593Z,77.46
2023-11-17T08:47:41.589Z,77.36
2023-11-17T08:48:44.399Z,77.36
2023-11-17T08:49:46.605Z,77.21
2023-11-17T08:50:49.145Z,77.22
2023-11-17T08:51:51.895Z,77.28
2023-11-17T08:52:54.122Z,77.27
2023-11-17T08:53:56.248Z,77.55
2023-11-17T08:54:58.742Z,77.64
2023-11-17T08:56:01.407Z,77.45
2023-11-17T08:57:05.090Z,77.46
2023-11-17T08:58:07.443Z,77.35
2023-11-17T08:59:10.215Z,77.44
2023-11-17T09:00:13.501Z,77.42
2023-11-17T09:01:16.488Z,77.53
2023-11-17T09:02:18.732Z,77.34
2023-11-17T09:03:21.100Z,77.48
2023-11-17T09:04:23.356Z,77.69
2023-11-17T09:05:26.327Z,77.84
2023-11-17T09:06:29.029Z,77.98
2023-11-17T09:07:31.842Z,78.05
2023-11-17T09:08:34.263Z,78.30
2023-11-17T09:09:36.897Z,78.41
2023-11-17T09:10:39.315Z,77.96
2023-11-17T09:11:44.134Z,77.96
2023-11-17T09:12:48.979Z,78.06
2023-11-17T09:13:52.051Z,78.17
2023-11-17T09:14:54.846Z,78.32
2023-11-17T09:15:57.834Z,78.49
2023-11-17T09:17:01.089Z,78.37
2023-11-17T09:19:13.836Z,78.52
2023-11-17T09:20:17.321Z,78.58
2023-11-17T09:21:20.123Z,78.70
2023-11-17T09:22:23.534Z,78.68
2023-11-17T09:23:26.027Z,78.73
2023-11-17T09:24:28.699Z,78.67
2023-11-17T09:25:33.681Z,78.54
2023-11-17T09:26:34.976Z,78.53
2023-11-17T09:27:37.349Z,78.15
2023-11-17T09:28:39.517Z,78.15
2023-11-17T09:29:41.612Z,78.29
2023-11-17T09:30:48.586Z,78.07
2023-11-17T09:31:50.692Z,77.97
2023-11-17T09:32:54.603Z,78.16
2023-11-17T09:33:58.008Z,78.39
2023-11-17T09:35:00.326Z,78.10
2023-11-17T09:36:04.040Z,78.04
2023-11-17T09:37:06.682Z,77.83
2023-11-17T09:38:09.270Z,78.02
2023-11-17T09:39:12.058Z,77.59
2023-11-17T09:40:15.108Z,77.57
2023-11-17T09:41:17.388Z,77.53
2023-11-17T09:42:20.643Z,77.48
2023-11-17T09:43:24.054Z,77.43
2023-11-17T09:44:27.849Z,77.32
2023-11-17T09:45:30.276Z,77.26
2023-11-17T09:46:35.527Z,77.17
2023-11-17T09:47:38.286Z,77.18
2023-11-17T09:48:43.465Z,77.09
2023-11-17T09:49:47.829Z,77.17
2023-11-17T09:50:51.304Z,77.30
2023-11-17T09:51:54.128Z,77.63
2023-11-17T09:52:58.519Z,77.64
2023-11-17T09:54:02.054Z,77.70
2023-11-17T09:55:07.317Z,77.75
2023-11-17T09:56:11.005Z,77.87
2023-11-17T09:57:14.796Z,77.74
2023-11-17T09:58:17.914Z,77.79
2023-11-17T09:59:20.674Z,77.78
2023-11-17T10:00:25.088Z,77.66
2023-11-17T10:01:29.104Z,77.76
2023-11-17T10:02:34.068Z,77.63
2023-11-17T10:03:39.516Z,77.46
2023-11-17T10:04:43.448Z,77.18
2023-11-17T10:05:48.521Z,77.24
2023-11-17T10:06:52.411Z,77.30
2023-11-17T10:07:58.195Z,77.44
2023-11-17T10:09:01.655Z,77.41
2023-11-17T10:10:06.893Z,77.48
2023-11-17T10:11:12.600Z,77.22
2023-11-17T10:12:15.158Z,77.22
2023-11-17T10:13:18.845Z,77.33
2023-11-17T10:14:23.818Z,77.25
2023-11-17T10:15:28.187Z,77.36
2023-11-17T10:16:33.225Z,76.98
2023-11-17T10:17:37.718Z,76.82
2023-11-17T10:18:41.916Z,76.73
2023-11-17T10:19:46.977Z,76.78
2023-11-17T10:20:50.097Z,76.64
2023-11-17T10:21:54.913Z,76.52
2023-11-17T10:22:59.367Z,76.50
2023-11-17T10:24:01.958Z,76.58
2023-11-17T10:25:05.350Z,76.23
2023-11-17T10:26:08.112Z,76.38
2023-11-17T10:27:10.759Z,76.57
2023-11-17T10:28:14.034Z,76.75
2023-11-17T10:29:16.305Z,76.86
2023-11-17T10:30:19.533Z,77.02
2023-11-17T10:31:23.199Z,77.03
2023-11-17T10:32:42.119Z,76.86
2023-11-17T10:33:40.228Z,76.70
2023-11-17T10:34:42.580Z,76.64
2023-11-17T10:36:05.528Z,76.78
2023-11-17T10:37:07.633Z,77.03
2023-11-17T10:38:17.256Z,77.21
2023-11-17T10:39:20.091Z,77.10
2023-11-17T10:40:23.978Z,76.96
2023-11-17T10:41:26.262Z,76.83
2023-11-17T10:42:28.595Z,76.72
2023-11-17T10:43:34.949Z,76.76
2023-11-17T10:44:37.291Z,76.85
2023-11-17T10:45:41.290Z,76.83
2023-11-17T10:46:44.743Z,76.78
2023-11-17T10:47:48.149Z,76.90
2023-11-17T10:48:50.853Z,76.75
2023-11-17T10:50:09.039Z,76.80
2023-11-17T10:51:11.344Z,76.81
2023-11-17T10:52:17.237Z,76.88
2023-11-17T10:53:21.425Z,77.02
2023-11-17T10:54:24.111Z,77.19
2023-11-17T10:55:33.786Z,77.33
2023-11-17T10:56:37.858Z,77.39
2023-11-17T10:57:40.573Z,77.31
2023-11-17T10:58:51.087Z,77.32
2023-11-17T10:59:58.454Z,77.01
2023-11-17T11:00:58.201Z,77.09
2023-11-17T11:02:01.487Z,76.82
2023-11-17T11:03:04.641Z,76.58
2023-11-17T11:04:07.919Z,76.52
2023-11-17T11:05:11.228Z,76.72
2023-11-17T11:06:14.229Z,76.76
2023-11-17T11:07:16.704Z,76.97
2023-11-17T11:08:19.280Z,76.99
2023-11-17T11:10:41.977Z,76.80
2023-11-17T11:11:48.593Z,77.31
2023-11-17T11:12:52.070Z,77.10
2023-11-17T11:13:55.104Z,77.09
2023-11-17T11:14:57.379Z,77.05
2023-11-17T11:16:02.446Z,77.10
2023-11-17T11:17:05.196Z,76.73
2023-11-17T11:18:07.630Z,76.39
2023-11-17T11:19:11.218Z,76.43
2023-11-17T11:20:22.790Z,76.46
2023-11-17T11:21:19.645Z,76.42
2023-11-17T11:22:23.296Z,76.08
2023-11-17T11:23:25.840Z,76.25
2023-11-17T11:24:36.506Z,75.95
2023-11-17T11:25:36.607Z,76.12
2023-11-17T11:26:39.199Z,76.30
2023-11-17T11:27:42.892Z,76.49
2023-11-17T11:28:46.906Z,76.34
2023-11-17T11:29:49.634Z,76.34
2023-11-17T11:30:54.026Z,76.53
2023-11-17T11:31:57.114Z,76.54
2023-11-17T11:33:00.051Z,76.52
2023-11-17T11:34:04.731Z,76.21
2023-11-17T11:35:07.994Z,76.28
2023-11-17T11:36:12.598Z,76.58
2023-11-17T11:37:14.871Z,76.71
2023-11-17T11:38:17.280Z,76.86
2023-11-17T11:39:20.775Z,76.76
2023-11-17T11:40:23.146Z,76.67
2023-11-17T11:41:25.606Z,76.59
2023-11-17T11:42:27.997Z,76.52
2023-11-17T11:43:30.227Z,76.46
2023-11-17T11:44:32.443Z,76.60
2023-11-17T11:45:34.862Z,76.64
2023-11-17T11:46:38.133Z,76.56
2023-11-17T11:47:40.949Z,76.63
2023-11-17T11:48:55.809Z,76.62
2023-11-17T11:49:58.760Z,76.56
2023-11-17T11:51:01.631Z,76.50
2023-11-17T11:52:07.886Z,76.43
2023-11-17T11:53:37.463Z,76.62
2023-11-17T11:54:40.365Z,76.72
2023-11-17T11:55:43.414Z,76.84
2023-11-17T11:56:46.352Z,76.76
2023-11-17T11:57:55.311Z,76.57
2023-11-17T11:58:58.882Z,76.54
2023-11-17T12:00:07.995Z,76.75
2023-11-17T12:01:17.745Z,76.69
2023-11-17T12:02:20.854Z,76.64
2023-11-17T12:04:34.302Z,76.91
2023-11-17T12:05:45.372Z,77.23
2023-11-17T12:06:51.241Z,77.30
2023-11-17T12:07:52.338Z,77.20
2023-11-17T12:09:06.042Z,77.28
2023-11-17T12:10:10.913Z,77.54
2023-11-17T12:11:14.433Z,77.67
2023-11-17T12:12:19.137Z,77.39
2023-11-17T12:13:44.221Z,77.44
2023-11-17T12:14:46.495Z,77.42
2023-11-17T12:15:49.295Z,77.45
2023-11-17T12:16:53.394Z,77.52
2023-11-17T12:18:00.878Z,77.80
2023-11-17T12:20:26.011Z,77.87
2023-11-17T12:21:28.311Z,78.18
2023-11-17T12:22:34.623Z,78.17
2023-11-17T12:23:56.894Z,78.25
2023-11-17T12:24:59.127Z,78.09
2023-11-17T12:26:03.825Z,78.06
2023-11-17T12:27:07.297Z,78.09
2023-11-17T12:28:11.531Z,77.96
2023-11-17T12:29:24.350Z,78.27
2023-11-17T12:30:32.829Z,78.40
2023-11-17T12:31:35.623Z,78.58
2023-11-17T12:32:38.961Z,78.67
2023-11-17T12:33:44.488Z,78.82
2023-11-17T12:34:46.892Z,78.84
2023-11-17T12:35:49.339Z,78.83
2023-11-17T12:38:10.638Z,78.47
2023-11-17T12:39:14.337Z,78.48
2023-11-17T12:40:18.352Z,78.19
2023-11-17T12:41:28.028Z,78.35
2023-11-17T12:42:29.565Z,78.34
2023-11-17T12:43:31.772Z,78.18
2023-11-17T12:44:34.698Z,78.31
2023-11-17T12:45:37.140Z,78.35
2023-11-17T12:46:39.871Z,78.49
2023-11-17T12:47:42.906Z,78.57
2023-11-17T12:48:46.475Z,78.58
2023-11-17T12:49:55.626Z,78.53
2023-11-17T12:50:58.564Z,78.37
2023-11-17T12:53:15.316Z,78.45
2023-11-17T12:54:18.285Z,78.50
2023-11-17T12:55:20.675Z,78.50
2023-11-17T12:56:24.433Z,78.53
2023-11-17T12:57:26.717Z,78.56
2023-11-17T12:58:29.328Z,78.56
2023-11-17T12:59:35.663Z,78.52
2023-11-17T13:00:38.916Z,78.45
2023-11-17T13:01:41.791Z,78.32
2023-11-17T13:02:44.799Z,78.34
2023-11-17T13:03:49.140Z,78.26
2023-11-17T13:04:51.602Z,78.26
2023-11-17T13:05:54.164Z,78.28
2023-11-17T13:06:56.630Z,78.08
2023-11-17T13:07:58.912Z,77.93
2023-11-17T13:09:01.678Z,77.95
2023-11-17T13:10:06.782Z,77.79
2023-11-17T13:11:11.655Z,77.88
2023-11-17T13:12:14.109Z,78.00
2023-11-17T13:13:17.510Z,77.98
2023-11-17T13:14:23.962Z,77.95
2023-11-17T13:15:26.557Z,78.06
2023-11-17T13:16:29.388Z,78.08
2023-11-17T13:17:32.159Z,78.02
2023-11-17T13:18:35.305Z,77.98
2023-11-17T13:19:37.789Z,77.89
2023-11-17T13:20:40.126Z,77.97
2023-11-17T13:21:42.935Z,78.01
2023-11-17T13:22:45.288Z,78.06
2023-11-17T13:23:49.338Z,78.10
2023-11-17T13:25:03.196Z,78.14
2023-11-17T13:26:21.673Z,78.07
2023-11-17T13:27:24.597Z,77.98
2023-11-17T13:28:27.959Z,77.90
2023-11-17T13:29:30.880Z,77.78
2023-11-17T13:30:33.161Z,77.80
2023-11-17T13:31:35.494Z,77.97
2023-11-17T13:32:52.163Z,78.07
2023-11-17T13:33:59.666Z,78.15
2023-11-17T13:35:02.190Z,78.13
2023-11-17T13:36:05.613Z,78.12
2023-11-17T13:37:08.002Z,78.07
2023-11-17T13:38:10.053Z,78.08
2023-11-17T13:39:13.231Z,78.22
2023-11-17T13:41:37.740Z,78.39
2023-11-17T13:42:40.497Z,78.61
2023-11-17T13:43:43.303Z,78.60
2023-11-17T13:44:47.695Z,78.54
2023-11-17T13:45:51.209Z,78.54
2023-11-17T13:46:55.484Z,78.51
2023-11-17T13:49:10.563Z,78.54
2023-11-17T13:50:13.746Z,78.58
2023-11-17T13:51:16.459Z,78.48
2023-11-17T13:52:18.837Z,78.40
2023-11-17T13:53:22.746Z,78.31
2023-11-17T13:54:26.226Z,78.19
2023-11-17T13:55:28.826Z,78.02
2023-11-17T13:56:31.400Z,77.87
2023-11-17T13:57:34.046Z,77.76
2023-11-17T13:58:36.295Z,77.61
2023-11-17T13:59:39.071Z,77.65
2023-11-17T14:00:42.160Z,77.61
2023-11-17T14:01:47.421Z,77.60
2023-11-17T14:02:49.960Z,77.63
2023-11-17T14:03:53.489Z,77.63